Time;durP1;ratioP1;P1;durP2;ratioP2;P2;SDS_P1;SDS_P2;PMS_P1;PMS_P2;Temp;Humidity;BMP_temperature;BMP_pressure;BME280_temperature;BME280_humidity;BME280_pressure;Samples;Min_cycle;Max_cycle;Signal;HPM_P1;HPM_P2
2021/04/21 00:01:04;;;;;;;5.50;4.32;;;;;;;8.71;68.29;100426.69;5025866;28;20037;-70
2021/04/21 00:03:30;;;;;;;4.50;3.47;;;;;;;8.64;71.36;100415.03;5033418;28;20029;-71
2021/04/21 00:05:57;;;;;;;7.40;5.13;;;;;;;8.64;68.59;100417.69;5034045;28;20026;-70
2021/04/21 00:08:24;;;;;;;7.28;5.10;;;;;;;8.58;68.59;100414.78;5032995;28;20064;-71
2021/04/21 00:10:51;;;;;;;5.85;4.20;;;;;;;8.49;70.06;100416.47;5031981;28;20506;-71
2021/04/21 00:13:17;;;;;;;6.35;4.68;;;;;;;8.45;69.72;100420.34;5032382;28;20064;-70
2021/04/21 00:15:42;;;;;;;5.38;4.05;;;;;;;8.40;70.48;100420.75;5032709;28;20116;-70
2021/04/21 00:18:08;;;;;;;7.55;4.43;;;;;;;8.28;72.79;100417.41;5024292;28;20541;-71
2021/04/21 00:20:36;;;;;;;6.50;4.65;;;;;;;8.22;71.25;100417.13;5032565;28;20494;-70
2021/04/21 00:23:09;;;;;;;5.93;4.00;;;;;;;8.20;73.74;100414.66;5027411;28;20061;-70
2021/04/21 00:25:35;;;;;;;5.57;3.78;;;;;;;8.18;73.86;100402.59;5014210;28;20041;-71
2021/04/21 00:28:04;;;;;;;6.60;4.85;;;;;;;8.12;75.06;100401.34;5031208;28;20445;-70
2021/04/21 00:30:32;;;;;;;4.97;4.03;;;;;;;8.04;72.23;100409.94;5009303;28;20518;-70
2021/04/21 00:32:59;;;;;;;6.07;4.80;;;;;;;7.91;74.68;100404.09;5020968;28;20037;-71
2021/04/21 00:35:31;;;;;;;7.20;4.90;;;;;;;7.82;73.11;100408.41;5025445;28;20021;-70
2021/04/21 00:38:00;;;;;;;5.68;4.03;;;;;;;7.76;73.01;100403.66;5032149;28;20585;-71
2021/04/21 00:40:43;;;;;;;5.75;4.53;;;;;;;7.68;73.59;100403.53;5032122;28;20033;-70
2021/04/21 00:43:28;;;;;;;5.22;4.00;;;;;;;7.64;72.85;100402.13;5031411;28;20391;-70
2021/04/21 00:46:02;;;;;;;6.47;4.60;;;;;;;7.55;73.50;100405.56;5031929;28;20037;-70
2021/04/21 00:48:49;;;;;;;7.43;4.95;;;;;;;7.47;73.00;100401.00;5025461;28;20464;-70
2021/04/21 00:51:24;;;;;;;5.30;4.10;;;;;;;7.41;76.25;100402.38;5032357;28;20045;-71
2021/04/21 00:54:28;;;;;;;5.97;4.13;;;;;;;7.44;71.94;100396.84;5032054;28;20038;-70
2021/04/21 00:57:22;;;;;;;6.20;3.97;;;;;;;7.47;76.70;100402.78;5031017;28;20033;-70
2021/04/21 01:00:04;;;;;;;4.82;3.97;;;;;;;7.44;75.01;100401.28;5031626;28;20057;-71
2021/04/21 01:02:35;;;;;;;5.03;3.60;;;;;;;7.41;74.83;100402.38;5018123;28;21255;-70
2021/04/21 01:05:06;;;;;;;8.60;4.65;;;;;;;7.33;73.74;100404.81;5013702;28;20049;-72
2021/04/21 01:07:32;;;;;;;;;;;;;;;7.23;73.14;100403.97;5032257;28;20025;-71
2021/04/21 01:10:01;;;;;;;6.72;4.88;;;;;;;7.15;74.43;100401.16;5031239;28;19931;-72
2021/04/21 01:12:29;;;;;;;6.28;4.82;;;;;;;7.05;76.02;100402.91;5030914;28;20037;-71
2021/04/21 01:14:55;;;;;;;6.43;4.53;;;;;;;7.08;74.22;100400.88;5031533;28;20481;-71
2021/04/21 01:17:24;;;;;;;6.97;4.95;;;;;;;7.16;73.87;100394.94;5010383;28;20518;-72
2021/04/21 01:19:59;;;;;;;7.72;4.07;;;;;;;7.18;73.89;100390.38;5026959;28;20129;-72
2021/04/21 01:23:01;;;;;;;5.00;3.78;;;;;;;7.15;75.02;100395.91;5014558;28;22261;-70
2021/04/21 01:25:40;;;;;;;5.88;4.50;;;;;;;7.07;77.20;100387.84;5017786;28;20029;-71
2021/04/21 01:28:11;;;;;;;6.10;4.50;;;;;;;7.03;75.82;100384.63;5001006;28;20065;-71
2021/04/21 01:30:41;;;;;;;5.93;4.22;;;;;;;7.02;74.13;100386.44;5019811;28;20042;-72
2021/04/21 01:33:12;;;;;;;5.43;4.00;;;;;;;6.98;74.40;100389.47;5029261;28;20033;-71
2021/04/21 01:35:43;;;;;;;6.35;4.70;;;;;;;6.89;77.92;100390.25;5031025;28;20030;-72
2021/04/21 01:38:09;;;;;;;7.78;5.75;;;;;;;6.79;76.58;100391.06;5029835;28;20123;-71
2021/04/21 01:40:37;;;;;;;6.53;5.00;;;;;;;6.76;76.84;100388.66;5030741;28;20025;-72
2021/04/21 01:43:14;;;;;;;7.72;4.80;;;;;;;6.70;76.55;100394.47;5031110;28;20034;-71
2021/04/21 01:45:41;;;;;;;7.20;5.00;;;;;;;6.63;76.01;100395.13;5031210;28;20057;-72
2021/04/21 01:48:14;;;;;;;5.88;4.00;;;;;;;6.60;75.34;100390.94;5022155;28;20034;-70
2021/04/21 01:50:39;;;;;;;6.18;4.20;;;;;;;6.59;75.58;100400.63;5031188;28;20030;-71
2021/04/21 01:53:17;;;;;;;5.90;4.07;;;;;;;6.64;75.03;100396.78;5029985;28;20025;-72
2021/04/21 01:55:51;;;;;;;5.85;4.43;;;;;;;6.63;76.40;100389.88;5030718;28;20037;-71
2021/04/21 01:58:43;;;;;;;6.18;4.32;;;;;;;6.56;75.17;100390.38;5029532;28;20486;-71
2021/04/21 02:01:45;;;;;;;6.43;4.38;;;;;;;6.51;78.17;100392.56;5022627;28;20033;-71
2021/04/21 02:04:36;;;;;;;6.25;4.60;;;;;;;6.47;77.30;100393.78;5029858;28;20324;-71
2021/04/21 02:07:39;;;;;;;5.80;4.32;;;;;;;6.45;77.73;100392.22;5031122;28;20454;-72
2021/04/21 02:10:12;;;;;;;7.30;4.78;;;;;;;6.51;75.14;100389.94;5029908;28;20033;-72
2021/04/21 02:13:21;;;;;;;5.72;4.50;;;;;;;6.53;76.50;100390.63;5031600;28;20037;-71
2021/04/21 02:15:54;;;;;;;6.57;4.55;;;;;;;6.54;79.36;100389.66;4934426;29;20488;-72
2021/04/21 02:18:59;;;;;;;6.75;4.90;;;;;;;6.58;75.91;100395.50;4927753;29;20039;-70
2021/04/21 02:21:31;;;;;;;5.50;4.10;;;;;;;6.57;77.28;100392.03;4999958;28;20611;-71
2021/04/21 02:24:05;;;;;;;7.10;4.20;;;;;;;6.59;75.61;100391.91;5025672;28;20033;-71
2021/04/21 02:26:40;;;;;;;4.85;3.95;;;;;;;6.54;76.17;100392.28;5029429;28;20371;-72
2021/04/21 02:29:18;;;;;;;6.65;4.55;;;;;;;6.46;76.04;100392.13;5029971;28;20405;-71
2021/04/21 02:32:03;;;;;;;5.53;4.13;;;;;;;6.32;76.08;100398.50;5015090;28;20042;-73
2021/04/21 02:34:47;;;;;;;8.60;5.90;;;;;;;6.14;77.39;100397.41;5020975;28;20037;-71
2021/04/21 02:37:22;;;;;;;8.57;5.97;;;;;;;5.97;79.06;100404.03;5030522;28;20044;-71
2021/04/21 02:40:03;;;;;;;8.68;5.75;;;;;;;5.89;81.75;100395.94;5030926;28;20124;-71
2021/04/21 02:42:39;;;;;;;7.85;5.50;;;;;;;5.99;81.14;100402.13;5011992;28;20029;-71
2021/04/21 02:45:27;;;;;;;7.38;5.40;;;;;;;6.07;80.04;100396.25;5010595;28;20030;-71
2021/04/21 02:48:11;;;;;;;6.25;4.82;;;;;;;6.05;81.01;100396.34;5018179;28;20089;-72
2021/04/21 02:50:49;;;;;;;7.80;5.50;;;;;;;6.09;80.97;100395.16;5027727;28;20030;-73
2021/04/21 02:53:25;;;;;;;9.60;5.47;;;;;;;6.14;80.74;100395.59;5021711;28;20033;-73
2021/04/21 02:56:13;;;;;;;7.65;5.68;;;;;;;6.10;78.01;100393.34;5021971;28;20034;-71
2021/04/21 02:58:38;;;;;;;9.52;6.63;;;;;;;5.92;79.76;100399.13;5029607;28;20036;-71
2021/04/21 03:01:18;;;;;;;7.57;5.47;;;;;;;5.85;80.15;100399.75;5020024;28;20120;-71
2021/04/21 03:04:05;;;;;;;8.60;5.90;;;;;;;5.78;79.83;100393.34;5017286;28;20124;-72
2021/04/21 03:06:37;;;;;;;9.23;6.05;;;;;;;5.69;82.54;100400.97;5029431;28;20033;-71
2021/04/21 03:09:06;;;;;;;8.55;5.97;;;;;;;5.63;79.51;100401.50;5029497;28;20065;-72
2021/04/21 03:11:32;;;;;;;8.15;5.85;;;;;;;5.57;81.54;100401.13;5011799;28;20112;-71
2021/04/21 03:14:03;;;;;;;7.35;4.90;;;;;;;5.57;81.58;100406.38;5011907;28;20124;-71
2021/04/21 03:16:32;;;;;;;9.27;5.55;;;;;;;5.53;79.38;100401.38;5023236;28;20034;-72
2021/04/21 03:19:10;;;;;;;8.77;6.28;;;;;;;5.41;80.65;100404.13;5026746;28;20032;-71
2021/04/21 03:21:39;;;;;;;8.77;6.13;;;;;;;5.36;79.95;100408.91;5017160;28;20026;-69
2021/04/21 03:24:15;;;;;;;8.77;6.00;;;;;;;5.37;81.55;100405.34;5022166;28;20034;-72
2021/04/21 03:26:43;;;;;;;6.47;4.75;;;;;;;5.51;80.22;100398.06;5008453;28;20029;-72
2021/04/21 03:29:13;;;;;;;8.57;5.70;;;;;;;5.65;79.71;100396.09;5011927;28;20405;-71
2021/04/21 03:31:42;;;;;;;10.95;7.50;;;;;;;5.87;78.70;100397.84;5021175;28;20137;-71
2021/04/21 03:34:12;;;;;;;10.38;7.55;;;;;;;6.03;77.86;100387.78;5020637;28;20395;-71
2021/04/21 03:36:38;;;;;;;13.77;8.45;;;;;;;6.17;77.11;100389.25;5029409;28;20626;-71
2021/04/21 03:39:05;;;;;;;10.65;7.10;;;;;;;6.16;78.02;100391.06;5029581;28;20304;-71
2021/04/21 03:41:30;;;;;;;9.85;6.78;;;;;;;6.13;78.51;100386.06;5028901;28;20037;-71
2021/04/21 03:43:57;;;;;;;9.45;6.50;;;;;;;6.12;79.21;100386.19;5029195;28;20048;-71
2021/04/21 03:46:23;;;;;;;8.77;7.00;;;;;;;6.10;79.51;100382.84;5028697;28;20034;-72
2021/04/21 03:48:50;;;;;;;14.60;9.00;;;;;;;6.21;77.37;100387.22;5021781;28;20083;-71
2021/04/21 03:51:17;;;;;;;9.95;6.82;;;;;;;6.25;77.04;100386.84;5029040;28;20047;-71
2021/04/21 03:53:43;;;;;;;8.70;6.13;;;;;;;6.18;78.76;100377.81;5011867;28;20044;-71
2021/04/21 03:56:16;;;;;;;8.63;6.57;;;;;;;6.17;78.14;100376.13;5029067;28;20090;-71
2021/04/21 03:58:42;;;;;;;7.55;5.78;;;;;;;6.16;78.12;100377.09;5011960;28;20041;-71
2021/04/21 04:01:20;;;;;;;9.07;6.80;;;;;;;6.07;78.74;100380.50;5001190;28;20064;-71
2021/04/21 04:03:50;;;;;;;10.65;7.15;;;;;;;6.01;79.72;100384.47;5028694;28;20037;-72
2021/04/21 04:06:38;;;;;;;6.93;5.25;;;;;;;5.97;80.49;100380.41;5032037;28;20033;-72
2021/04/21 04:09:06;;;;;;;8.18;5.97;;;;;;;5.99;78.56;100375.88;5032979;28;20039;-71
2021/04/21 04:11:34;;;;;;;8.07;6.32;;;;;;;5.93;78.89;100376.34;5030387;28;20034;-72
2021/04/21 04:14:06;;;;;;;8.57;6.13;;;;;;;5.92;79.33;100377.31;5032830;28;20037;-71
2021/04/21 04:16:36;;;;;;;6.78;5.15;;;;;;;5.95;79.94;100380.53;5027144;28;20516;-71
2021/04/21 04:19:03;;;;;;;7.32;5.30;;;;;;;5.99;79.26;100375.88;5031026;28;20508;-71
2021/04/21 04:21:35;;;;;;;7.72;5.13;;;;;;;6.03;78.35;100385.16;5033432;28;20037;-71
2021/04/21 04:24:02;;;;;;;7.80;5.45;;;;;;;5.99;79.81;100394.25;5027535;28;20497;-71
2021/04/21 04:26:28;;;;;;;7.05;5.18;;;;;;;5.99;77.74;100389.00;5025294;28;20030;-72
2021/04/21 04:28:55;;;;;;;5.35;3.92;;;;;;;5.95;79.90;100393.66;5033186;28;20037;-72
2021/04/21 04:31:21;;;;;;;8.85;5.63;;;;;;;5.98;77.84;100394.38;5024800;28;20136;-71
2021/04/21 04:33:50;;;;;;;7.22;5.38;;;;;;;5.93;80.93;100399.94;5011466;28;20034;-71
2021/04/21 04:36:16;;;;;;;9.20;5.90;;;;;;;5.89;80.91;100396.75;5014786;28;20271;-71
2021/04/21 04:38:42;;;;;;;6.65;4.85;;;;;;;5.84;78.06;100403.31;5014417;28;20585;-71
2021/04/21 04:41:08;;;;;;;9.05;5.60;;;;;;;5.79;79.37;100406.31;5026209;28;20037;-72
2021/04/21 04:43:34;;;;;;;6.75;4.63;;;;;;;5.78;79.52;100411.69;5012021;28;20495;-72
2021/04/21 04:46:01;;;;;;;6.35;4.32;;;;;;;5.81;79.84;100412.28;5029264;28;20079;-70
2021/04/21 04:48:40;;;;;;;6.85;4.65;;;;;;;5.81;80.93;100408.81;5022704;28;20037;-72
2021/04/21 04:51:06;;;;;;;6.82;4.95;;;;;;;5.82;79.90;100424.47;5031977;28;20525;-71
2021/04/21 04:53:35;;;;;;;7.28;5.53;;;;;;;5.80;80.52;100422.91;5026521;28;20434;-71
2021/04/21 04:56:02;;;;;;;6.40;4.70;;;;;;;5.85;79.27;100418.13;5029329;28;20506;-71
2021/04/21 04:58:28;;;;;;;6.00;4.63;;;;;;;5.84;80.73;100427.78;5026606;28;20434;-70
2021/04/21 05:01:02;;;;;;;7.70;5.20;;;;;;;5.88;79.30;100426.56;5020464;28;20537;-71
2021/04/21 05:03:30;;;;;;;6.57;4.30;;;;;;;5.88;78.33;100431.00;5010320;28;20118;-71
2021/04/21 05:05:57;;;;;;;6.63;4.40;;;;;;;5.86;78.52;100432.91;5021302;28;20030;-71
2021/04/21 05:08:27;;;;;;;8.30;6.20;;;;;;;5.88;77.85;100431.81;5029174;28;20044;-70
2021/04/21 05:11:02;;;;;;;6.03;4.60;;;;;;;5.87;78.82;100435.41;5025543;28;20065;-72
2021/04/21 05:13:32;;;;;;;6.13;4.10;;;;;;;5.93;78.88;100436.69;5024178;28;20124;-71
2021/04/21 05:16:10;;;;;;;5.80;4.20;;;;;;;6.02;80.74;100438.63;5022720;28;20411;-73
2021/04/21 05:18:36;;;;;;;12.10;8.52;;;;;;;6.28;77.89;100438.28;5015591;28;20068;-71
2021/04/21 05:21:07;;;;;;;10.90;7.20;;;;;;;6.44;78.00;100443.94;5023340;28;20503;-72
2021/04/21 05:24:00;;;;;;;7.50;5.60;;;;;;;6.69;78.15;100450.59;5031810;28;20401;-71
2021/04/21 05:27:03;;;;;;;8.65;6.20;;;;;;;6.85;77.33;100451.94;5025392;28;20064;-71
2021/04/21 05:29:43;;;;;;;7.35;5.72;;;;;;;7.00;76.54;100451.47;5018521;28;20425;-71
2021/04/21 05:32:49;;;;;;;8.48;5.80;;;;;;;7.20;76.17;100451.59;5014654;28;20046;-70
2021/04/21 05:35:54;;;;;;;8.15;5.50;;;;;;;7.44;74.70;100459.16;5030798;28;20037;-70
2021/04/21 05:38:53;;;;;;;8.00;5.05;;;;;;;7.67;74.73;100454.50;5027409;28;20034;-71
2021/04/21 05:41:27;;;;;;;6.30;4.40;;;;;;;8.01;74.32;100454.97;5021919;28;20172;-71
2021/04/21 05:44:22;;;;;;;6.60;3.42;;;;;;;8.38;72.53;100456.09;5018691;28;20039;-69
2021/04/21 05:47:16;;;;;;;6.85;4.95;;;;;;;8.66;71.64;100460.53;5017953;28;20034;-71
2021/04/21 05:50:19;;;;;;;5.55;3.47;;;;;;;9.10;70.77;100460.84;5015107;28;20038;-72
2021/04/21 05:52:56;;;;;;;6.15;3.90;;;;;;;9.54;68.94;100452.34;5023391;28;20052;-70
2021/04/21 05:55:27;;;;;;;5.93;4.25;;;;;;;9.94;69.66;100459.91;5027582;28;20026;-71
2021/04/21 05:58:12;;;;;;;;;;;;;;;10.31;67.79;100456.31;5012519;28;20045;-69
2021/04/21 06:01:07;;;;;;;6.03;4.38;;;;;;;10.69;68.97;100456.94;4990217;28;20378;-71
2021/04/21 06:03:34;;;;;;;5.60;4.13;;;;;;;10.93;64.27;100463.41;5011286;28;20050;-71
2021/04/21 06:06:04;;;;;;;5.40;4.00;;;;;;;11.29;66.69;100465.91;5010519;28;20041;-72
2021/04/21 06:08:30;;;;;;;5.90;3.83;;;;;;;11.62;68.33;100457.13;4992192;28;20042;-71
2021/04/21 06:10:56;;;;;;;5.00;3.50;;;;;;;12.07;64.05;100469.19;5009944;28;20034;-72
2021/04/21 06:13:32;;;;;;;4.45;3.22;;;;;;;12.45;60.95;100460.78;5010714;28;20104;-72
2021/04/21 06:15:58;;;;;;;6.25;3.70;;;;;;;12.64;59.76;100468.41;5011680;28;20065;-71
2021/04/21 06:18:24;;;;;;;4.47;2.95;;;;;;;13.10;57.35;100473.97;5009062;28;20026;-71
2021/04/21 06:20:50;;;;;;;6.22;4.25;;;;;;;13.37;56.44;100477.25;5008493;28;20112;-71
2021/04/21 06:23:23;;;;;;;5.78;3.83;;;;;;;13.68;59.15;100476.47;5010601;28;20124;-72
2021/04/21 06:25:57;;;;;;;6.65;4.00;;;;;;;14.20;62.15;100481.97;4992121;28;20128;-72
2021/04/21 06:28:23;;;;;;;7.50;4.85;;;;;;;14.72;58.46;100480.44;5009375;28;20129;-71
2021/04/21 06:31:01;;;;;;;5.65;3.97;;;;;;;14.98;58.40;100474.72;5009674;28;20061;-71
2021/04/21 06:33:31;;;;;;;5.80;4.32;;;;;;;15.22;54.47;100481.63;5016604;28;20482;-71
2021/04/21 06:35:57;;;;;;;5.63;4.07;;;;;;;15.24;58.50;100484.13;5008379;28;20104;-71
2021/04/21 06:38:27;;;;;;;6.07;4.20;;;;;;;15.18;53.67;100487.50;5011664;28;20034;-72
2021/04/21 06:40:53;;;;;;;6.82;4.60;;;;;;;15.05;51.81;100482.81;5026648;28;20096;-73
2021/04/21 06:43:23;;;;;;;8.35;4.97;;;;;;;15.26;53.22;100485.59;5021239;28;20501;-70
2021/04/21 06:45:51;;;;;;;6.75;5.05;;;;;;;15.53;54.12;100487.78;5030426;28;20533;-70
2021/04/21 06:48:26;;;;;;;6.40;4.05;;;;;;;15.64;54.32;100482.81;5017494;28;20406;-70
2021/04/21 06:50:52;;;;;;;5.82;4.18;;;;;;;16.09;55.08;100494.25;5029497;28;20042;-71
2021/04/21 06:53:17;;;;;;;10.23;6.28;;;;;;;16.31;53.23;100496.94;5025932;28;20557;-71
2021/04/21 06:55:42;;;;;;;9.25;6.28;;;;;;;16.34;51.43;100492.00;5024771;28;20037;-70
2021/04/21 06:58:18;;;;;;;7.70;5.50;;;;;;;16.29;51.85;100496.28;5020783;28;20033;-71
2021/04/21 07:00:44;;;;;;;7.72;4.10;;;;;;;16.79;52.80;100499.03;5010206;28;20037;-70
2021/04/21 07:03:15;;;;;;;6.00;4.10;;;;;;;17.29;48.39;100489.09;5020383;28;20033;-70
2021/04/21 07:05:42;;;;;;;6.70;5.10;;;;;;;17.57;50.72;100489.06;5011782;28;20506;-71
2021/04/21 07:08:28;;;;;;;8.32;6.25;;;;;;;17.78;49.45;100488.09;5028548;28;20033;-71
2021/04/21 07:10:56;;;;;;;10.90;7.00;;;;;;;18.15;45.70;100481.44;5011327;28;20041;-71
2021/04/21 07:13:25;;;;;;;8.77;6.82;;;;;;;17.91;44.19;100482.81;5028812;28;20021;-70
2021/04/21 07:15:53;;;;;;;7.75;5.22;;;;;;;17.91;47.32;100487.34;5029833;28;20073;-71
2021/04/21 07:18:21;;;;;;;7.20;5.00;;;;;;;18.33;46.11;100494.25;5013328;28;20490;-71
2021/04/21 07:20:48;;;;;;;7.55;5.53;;;;;;;18.97;46.12;100494.72;5028993;28;20038;-71
2021/04/21 07:23:19;;;;;;;7.07;5.75;;;;;;;19.37;43.51;100489.28;5008672;28;20052;-71
2021/04/21 07:25:49;;;;;;;9.57;7.32;;;;;;;19.42;41.82;100492.16;5014371;28;20030;-71
2021/04/21 07:28:16;;;;;;;6.17;4.70;;;;;;;19.54;42.21;100490.47;5028437;28;20033;-71
2021/04/21 07:30:42;;;;;;;8.82;5.18;;;;;;;19.66;41.34;100491.47;5028642;28;20048;-71
2021/04/21 07:33:09;;;;;;;9.88;7.95;;;;;;;20.08;39.60;100491.09;5026016;28;20038;-71
2021/04/21 07:35:35;;;;;;;7.40;5.70;;;;;;;19.59;40.32;100489.81;5020599;28;20057;-71
2021/04/21 07:38:01;;;;;;;7.05;5.10;;;;;;;19.80;42.17;100494.94;5032181;28;20525;-71
2021/04/21 07:40:32;;;;;;;8.93;7.30;;;;;;;19.30;41.58;100487.44;5014744;28;20452;-71
2021/04/21 07:43:11;;;;;;;9.68;7.93;;;;;;;20.22;40.44;100497.22;5032948;28;20048;-71
2021/04/21 07:45:59;;;;;;;9.07;6.60;;;;;;;20.00;40.80;100502.06;5032809;28;20490;-71
2021/04/21 07:48:33;;;;;;;13.02;9.07;;;;;;;20.72;37.99;100498.09;5024418;28;20382;-71
2021/04/21 07:51:21;;;;;;;8.07;6.28;;;;;;;20.41;40.89;100490.88;5031087;28;20057;-71
2021/04/21 07:53:50;;;;;;;9.13;6.38;;;;;;;20.50;39.56;100489.56;5033180;28;20044;-71
2021/04/21 07:56:16;;;;;;;9.23;6.57;;;;;;;20.90;40.56;100502.69;5032112;28;20041;-71
2021/04/21 07:58:42;;;;;;;9.25;5.63;;;;;;;21.35;40.23;100501.66;5026081;28;20064;-71
2021/04/21 08:01:07;;;;;;;9.05;5.95;;;;;;;21.48;40.06;100506.09;5031409;28;20041;-70
2021/04/21 08:03:33;;;;;;;11.38;9.38;;;;;;;22.21;34.60;100503.31;5032229;28;20026;-71
2021/04/21 08:05:59;;;;;;;9.68;8.07;;;;;;;21.92;36.47;100504.94;5024356;28;20044;-71
2021/04/21 08:08:31;;;;;;;7.30;6.20;;;;;;;21.55;39.52;100504.16;5028444;28;20045;-71
2021/04/21 08:10:58;;;;;;;7.32;6.32;;;;;;;21.45;37.54;100507.34;5029772;28;20133;-70
2021/04/21 08:13:48;;;;;;;8.07;6.15;;;;;;;21.20;39.18;100502.81;5032506;28;20262;-71
2021/04/21 08:16:23;;;;;;;8.48;6.90;;;;;;;21.54;38.17;100502.50;5026650;28;20510;-71
2021/04/21 08:18:49;;;;;;;11.75;8.50;;;;;;;22.08;36.59;100500.78;5029663;28;20054;-72
2021/04/21 08:21:33;;;;;;;7.95;6.35;;;;;;;22.06;37.05;100502.88;5014848;28;20037;-71
2021/04/21 08:24:00;;;;;;;7.43;5.85;;;;;;;22.73;37.11;100507.31;5026817;28;20057;-71
2021/04/21 08:26:26;;;;;;;6.85;5.45;;;;;;;22.96;36.30;100509.22;5033112;28;20041;-71
2021/04/21 08:28:52;;;;;;;8.57;6.90;;;;;;;22.82;34.20;100498.63;5034734;28;20034;-72
2021/04/21 08:31:24;;;;;;;7.53;6.50;;;;;;;23.08;33.76;100508.19;5025460;28;20033;-71
2021/04/21 08:33:50;;;;;;;8.60;7.47;;;;;;;23.02;35.52;100502.91;5033984;28;20041;-71
2021/04/21 08:36:15;;;;;;;8.55;7.40;;;;;;;23.49;32.18;100502.84;5018287;28;20041;-72
2021/04/21 08:38:40;;;;;;;7.60;6.68;;;;;;;23.85;33.19;100499.03;5019536;28;20041;-71
2021/04/21 08:41:07;;;;;;;7.70;6.05;;;;;;;24.11;33.05;100502.22;5023701;28;20561;-72
2021/04/21 08:43:36;;;;;;;7.80;6.40;;;;;;;24.17;33.45;100498.56;5030379;28;20045;-74
2021/04/21 08:46:02;;;;;;;9.50;6.53;;;;;;;23.89;34.44;100499.38;5009984;28;20525;-71
2021/04/21 08:48:29;;;;;;;8.45;7.45;;;;;;;24.26;32.92;100507.06;5021575;28;20998;-71
2021/04/21 08:50:55;;;;;;;9.23;7.78;;;;;;;24.05;32.03;100495.91;5013974;28;20042;-71
2021/04/21 08:53:21;;;;;;;8.23;6.72;;;;;;;24.07;31.95;100498.34;5031890;28;20536;-71
2021/04/21 08:55:49;;;;;;;8.02;7.22;;;;;;;23.79;32.25;100500.00;5032168;28;20499;-72
2021/04/21 08:58:15;;;;;;;8.65;6.63;;;;;;;23.73;31.60;100501.75;5023704;28;20498;-71
2021/04/21 09:00:41;;;;;;;6.90;5.82;;;;;;;23.83;32.09;100503.03;5023202;28;20041;-71
2021/04/21 09:03:07;;;;;;;6.97;5.70;;;;;;;24.11;31.76;100502.22;5032411;28;20037;-71
2021/04/21 09:05:33;;;;;;;7.88;6.50;;;;;;;24.73;32.06;100501.41;5033717;28;20030;-72
2021/04/21 09:08:00;;;;;;;6.88;6.18;;;;;;;24.66;31.64;100501.56;5033253;28;20521;-71
2021/04/21 09:10:25;;;;;;;7.65;6.40;;;;;;;24.45;31.47;100507.66;5031981;28;20046;-71
2021/04/21 09:12:51;;;;;;;7.28;6.20;;;;;;;24.09;32.77;100504.31;5033458;28;20402;-71
2021/04/21 09:15:17;;;;;;;9.73;8.13;;;;;;;24.88;31.70;100509.75;5032587;28;20033;-70
2021/04/21 09:17:48;;;;;;;9.98;8.98;;;;;;;24.41;31.89;100510.06;5023969;28;20457;-71
2021/04/21 09:20:15;;;;;;;;;;;;;;;24.28;33.02;100511.16;5030549;28;20117;-71
2021/04/21 09:23:11;;;;;;;10.60;8.30;;;;;;;23.66;32.70;100503.75;5031529;28;19913;-71
2021/04/21 09:25:39;;;;;;;9.02;6.60;;;;;;;23.27;35.33;100506.16;5020590;28;20065;-71
2021/04/21 09:28:05;;;;;;;9.88;8.02;;;;;;;23.18;34.17;100495.97;5013117;28;20060;-72
2021/04/21 09:30:31;;;;;;;8.77;7.25;;;;;;;21.89;36.01;100501.88;5031135;28;20030;-70
2021/04/21 09:32:58;;;;;;;9.80;7.63;;;;;;;21.48;35.84;100498.84;5009832;28;20041;-71
2021/04/21 09:35:26;;;;;;;9.77;6.95;;;;;;;22.17;36.12;100488.66;5024100;28;20034;-71
2021/04/21 09:37:54;;;;;;;7.65;6.10;;;;;;;21.78;37.75;100496.19;5031203;28;20126;-71
2021/04/21 09:40:42;;;;;;;8.55;6.50;;;;;;;21.72;37.84;100494.44;5021632;28;20025;-70
2021/04/21 09:43:29;;;;;;;8.05;6.60;;;;;;;21.74;35.68;100492.34;5030524;28;20040;-71
2021/04/21 09:45:55;;;;;;;10.50;7.88;;;;;;;21.82;35.00;100494.69;5030785;28;20474;-72
2021/04/21 09:48:33;;;;;;;9.07;6.57;;;;;;;21.35;36.09;100491.69;5019232;28;20505;-70
2021/04/21 09:51:00;;;;;;;10.55;8.82;;;;;;;21.40;35.19;100493.75;5022656;28;20124;-71
2021/04/21 09:53:31;;;;;;;12.75;9.43;;;;;;;21.40;35.88;100488.38;5030604;28;20068;-70
2021/04/21 09:56:17;;;;;;;8.30;6.80;;;;;;;20.62;37.53;100491.56;5023016;28;20048;-71
2021/04/21 09:58:53;;;;;;;9.25;7.90;;;;;;;20.71;37.76;100484.88;5029631;28;20033;-71
2021/04/21 10:01:26;;;;;;;9.80;7.90;;;;;;;20.79;37.66;100487.31;5029993;28;20029;-71
2021/04/21 10:04:06;;;;;;;8.32;6.95;;;;;;;20.48;41.56;100480.91;5032396;28;20040;-71
2021/04/21 10:06:32;;;;;;;6.82;5.93;;;;;;;20.64;39.74;100481.41;5031985;28;20087;-70
2021/04/21 10:08:58;;;;;;;8.23;6.90;;;;;;;21.28;37.06;100482.88;5024728;28;20048;-71
2021/04/21 10:11:23;;;;;;;8.57;6.30;;;;;;;20.70;38.56;100480.56;5033741;28;20033;-71
2021/04/21 10:13:53;;;;;;;7.55;6.00;;;;;;;20.71;38.52;100474.97;5025317;28;20049;-70
2021/04/21 10:16:21;;;;;;;6.60;5.70;;;;;;;20.87;37.88;100481.63;5029158;28;20336;-69
2021/04/21 10:18:48;;;;;;;8.15;6.40;;;;;;;20.93;35.72;100464.63;5015774;28;20041;-71
2021/04/21 10:21:14;;;;;;;8.63;6.93;;;;;;;20.25;36.88;100462.66;5024471;28;20040;-71
2021/04/21 10:23:44;;;;;;;8.45;6.93;;;;;;;20.52;35.71;100466.00;5031531;28;20112;-70
2021/04/21 10:26:14;;;;;;;11.10;8.65;;;;;;;20.88;35.29;100467.19;5030904;28;20061;-69
2021/04/21 10:28:41;;;;;;;9.23;7.10;;;;;;;20.53;36.74;100461.44;5033175;28;20068;-70
2021/04/21 10:31:15;;;;;;;10.68;7.85;;;;;;;20.43;36.93;100459.25;5031182;28;20176;-72
2021/04/21 10:33:41;;;;;;;10.43;7.50;;;;;;;20.30;38.09;100457.47;5016296;28;20406;-70
2021/04/21 10:36:07;;;;;;;9.30;7.45;;;;;;;20.07;37.90;100459.91;5012606;28;20042;-70
2021/04/21 10:38:34;;;;;;;10.35;7.97;;;;;;;20.07;37.57;100460.75;5026153;28;20053;-71
2021/04/21 10:41:25;;;;;;;10.15;8.52;;;;;;;20.08;36.65;100457.00;5023353;28;20042;-70
2021/04/21 10:44:06;;;;;;;9.88;7.20;;;;;;;20.06;37.46;100451.03;5031241;28;20029;-70
2021/04/21 10:47:06;;;;;;;;;;;;;;;20.07;36.94;100450.00;5030337;28;20040;-70
2021/04/21 10:49:41;;;;;;;9.98;7.80;;;;;;;20.20;38.00;100453.63;5001048;28;19928;-70
2021/04/21 10:52:10;;;;;;;9.27;7.50;;;;;;;20.33;36.88;100449.00;5028852;28;20451;-70
2021/04/21 10:54:35;;;;;;;10.93;7.88;;;;;;;20.26;37.25;100442.00;5029983;28;20056;-69
2021/04/21 10:57:19;;;;;;;9.82;7.00;;;;;;;20.21;39.26;100439.97;5029404;28;20136;-69
2021/04/21 11:00:22;;;;;;;9.10;7.13;;;;;;;20.19;38.24;100436.72;5029592;28;20043;-69
2021/04/21 11:02:54;;;;;;;8.93;6.95;;;;;;;20.10;37.58;100441.50;5029874;28;20045;-71
2021/04/21 11:05:27;;;;;;;12.13;8.38;;;;;;;20.37;35.06;100442.13;5030212;28;20099;-71
2021/04/21 11:07:55;;;;;;;11.25;8.27;;;;;;;19.87;36.74;100434.00;5028973;28;20120;-69
2021/04/21 11:10:53;;;;;;;9.85;7.57;;;;;;;19.47;36.61;100434.19;5028212;28;20100;-71
2021/04/21 11:13:33;;;;;;;12.70;8.60;;;;;;;19.07;37.56;100434.31;5033068;28;20571;-68
2021/04/21 11:15:59;;;;;;;11.03;7.27;;;;;;;18.87;37.87;100433.50;5032895;28;20073;-69
2021/04/21 11:18:25;;;;;;;10.60;7.97;;;;;;;18.76;37.96;100436.78;5012648;28;20071;-69
2021/04/21 11:20:56;;;;;;;8.30;6.28;;;;;;;18.41;39.02;100434.34;5029849;28;20038;-69
2021/04/21 11:23:58;;;;;;;7.80;6.33;;;;;;;18.13;39.44;100431.84;5033883;28;20025;-68
2021/04/21 11:26:23;;;;;;;8.02;5.90;;;;;;;18.38;38.59;100430.22;5032765;28;20776;-69
2021/04/21 11:28:55;;;;;;;8.43;6.10;;;;;;;18.38;38.67;100432.91;5025457;28;20045;-69
2021/04/21 11:31:22;;;;;;;7.07;6.00;;;;;;;18.20;38.95;100432.66;5025388;28;20038;-68
2021/04/21 11:33:53;;;;;;;7.53;5.88;;;;;;;18.19;38.39;100428.34;5025862;28;20100;-69
2021/04/21 11:36:38;;;;;;;6.25;4.95;;;;;;;18.39;40.51;100421.16;5025125;28;20037;-69
2021/04/21 11:39:04;;;;;;;6.82;5.32;;;;;;;18.80;37.72;100421.97;5033012;28;20033;-69
2021/04/21 11:41:44;;;;;;;7.95;5.63;;;;;;;18.95;35.55;100413.69;5027860;28;20511;-71
2021/04/21 11:44:10;;;;;;;7.65;5.35;;;;;;;18.70;35.65;100408.16;5031610;28;20324;-68
2021/04/21 11:46:58;;;;;;;7.90;4.47;;;;;;;18.92;36.49;100414.94;5032132;28;20065;-69
2021/04/21 11:50:01;;;;;;;8.02;6.10;;;;;;;18.92;42.51;100414.94;5018959;28;20029;-71
2021/04/21 11:52:45;;;;;;;6.72;5.30;;;;;;;19.03;38.50;100402.78;5001018;28;20064;-70
2021/04/21 11:55:23;;;;;;;8.10;5.32;;;;;;;19.48;36.92;100400.13;5015069;28;20099;-69
2021/04/21 11:58:13;;;;;;;7.75;5.63;;;;;;;19.71;34.10;100399.63;5032975;28;20326;-69